Mellow Valley, Alabama
Current Conditions -  °F | °C
As of 6:35 AM on Friday 31 Oct 2014 (Local Time) from KALX Reporting Station
Clear Clear  
Wind Chill: 42°   Ceiling: Unl
Heat Index: 42°   Visibility: 10mi
Dew Point: 38°   Wind: 0mph
Humidity: 86%   Direction: NA
Pressure: 29.98"   Gusts: NA
Location:  33.2145°N, 85.6889°W
Report Text: KALX 311135Z AUTO 00000KT 10SM CLR 06/03 A2998 RMK AO2 T00550033
Loading
Personal Weather Stations






























Interactive Weather Map
Tropical Storm Tracking
New forecast layout! Learn more

10-Day Weather Forecast

Advertisements
Track Severe Weather on mobile